Terminal Aerodrome Forecast
Issued by NWS

Home | Current Version | Previous Version | Text Only | Print | Product List | Glossary Off
Versions: 1 2 3 4 5 6 7 8 9 10 11 12 13 14 15

062
FTUS43 KOAX 221612 AAA
TAFCDR
TAF AMD
KCDR 221612Z 2216/2312 28009KT P6SM FEW120
     FM221900 34016G24KT P6SM -SHRA BKN040 OVC070
     FM230200 36011KT P6SM SCT050 BKN090=

USA.gov is the U.S. government's official web portal to all federal, state and local government web resources and services.